Time;durP1;ratioP1;P1;durP2;ratioP2;P2;SDS_P1;SDS_P2;PMS_P1;PMS_P2;Temp;Humidity;BMP_temperature;BMP_pressure;BME280_temperature;BME280_humidity;BME280_pressure;Samples;Min_cycle;Max_cycle;Signal;HPM_P1;HPM_P2
2020/12/27 00:00:42;;;;;;;16.90;2.80;;;10.00;99.90;;;;;;6163556;23;20472;-91
2020/12/27 00:03:22;;;;;;;15.35;2.55;;;10.00;99.90;;;;;;6163503;23;20025;-91
2020/12/27 00:06:04;;;;;;;11.27;2.28;;;10.00;99.90;;;;;;6163758;23;20075;-91
2020/12/27 00:08:44;;;;;;;14.27;3.03;;;10.00;99.90;;;;;;6162704;23;20013;-91
2020/12/27 00:11:36;;;;;;;13.68;3.33;;;10.10;99.90;;;;;;6164487;23;20416;-91
2020/12/27 00:14:23;;;;;;;18.95;2.60;;;10.10;99.90;;;;;;6164406;23;20113;-91
2020/12/27 00:17:20;;;;;;;20.02;3.30;;;10.10;99.90;;;;;;6166347;23;20017;-91
2020/12/27 00:20:06;;;;;;;11.05;2.70;;;10.10;99.90;;;;;;6164673;23;20017;-91
2020/12/27 00:22:54;;;;;;;16.98;3.53;;;10.10;99.90;;;;;;6167241;23;20440;-92
2020/12/27 00:25:40;;;;;;;15.93;2.83;;;10.10;99.90;;;;;;6166550;23;20017;-92
2020/12/27 00:28:27;;;;;;;17.92;2.63;;;10.10;99.90;;;;;;6166249;23;20024;-92
2020/12/27 00:31:14;;;;;;;24.65;3.47;;;10.10;99.90;;;;;;6165982;23;20020;-92
2020/12/27 00:34:09;;;;;;;21.25;3.70;;;10.20;99.90;;;;;;6167676;23;20044;-92
2020/12/27 00:36:57;;;;;;;22.95;3.72;;;10.20;99.90;;;;;;6165342;23;20044;-91
2020/12/27 00:39:42;;;;;;;21.70;3.50;;;10.20;99.90;;;;;;6165072;23;20080;-92
2020/12/27 00:42:24;;;;;;;21.73;3.25;;;10.20;99.90;;;;;;6164786;23;20068;-92
2020/12/27 00:45:09;;;;;;;22.23;3.20;;;10.20;99.90;;;;;;6165909;23;20021;-92
2020/12/27 00:47:54;;;;;;;20.75;3.67;;;10.20;99.90;;;;;;6165533;23;20113;-92
2020/12/27 00:50:33;;;;;;;20.25;3.55;;;10.20;99.90;;;;;;6164583;23;20013;-94
2020/12/27 00:53:24;;;;;;;19.42;4.72;;;10.30;99.90;;;;;;6165164;23;20020;-93
2020/12/27 00:56:06;;;;;;;24.17;4.10;;;10.30;99.90;;;;;;6165151;23;20017;-92
2020/12/27 00:58:54;;;;;;;18.70;3.13;;;10.20;99.90;;;;;;6165639;23;20016;-93
2020/12/27 01:01:43;;;;;;;23.75;3.22;;;10.20;99.90;;;;;;6165296;23;20025;-93
2020/12/27 01:04:33;;;;;;;29.38;4.20;;;10.30;99.90;;;;;;6166063;23;20071;-93
2020/12/27 01:07:19;;;;;;;26.83;3.53;;;10.30;99.90;;;;;;6164779;23;20021;-92
2020/12/27 01:10:08;;;;;;;25.73;4.57;;;10.30;99.90;;;;;;6165111;23;20322;-93
2020/12/27 01:12:56;;;;;;;23.00;3.55;;;10.30;99.90;;;;;;6165291;23;20023;-93
2020/12/27 01:15:46;;;;;;;19.02;3.50;;;10.30;99.90;;;;;;6166136;23;20353;-94
2020/12/27 01:18:30;;;;;;;26.30;3.90;;;10.30;99.90;;;;;;6164842;23;20032;-93
2020/12/27 01:21:28;;;;;;;24.85;3.55;;;10.30;99.90;;;;;;6166374;23;20040;-93
2020/12/27 01:24:13;;;;;;;22.50;4.18;;;10.30;99.90;;;;;;6165319;23;20101;-93
2020/12/27 01:26:55;;;;;;;22.92;3.65;;;10.40;99.90;;;;;;6164004;23;20017;-93
2020/12/27 01:29:34;;;;;;;21.75;4.07;;;10.30;99.90;;;;;;6164999;23;20048;-93
2020/12/27 01:32:27;;;;;;;28.70;5.18;;;10.30;99.90;;;;;;6165850;23;20025;-92
2020/12/27 01:35:18;;;;;;;24.48;3.75;;;10.30;99.90;;;;;;6188397;23;20027;-92
2020/12/27 01:38:08;;;;;;;29.45;4.55;;;10.30;99.90;;;;;;6166794;23;20354;-92
2020/12/27 01:41:04;;;;;;;25.27;4.75;;;10.30;99.90;;;;;;6166688;23;20341;-93
2020/12/27 01:43:59;;;;;;;20.92;3.80;;;10.30;99.90;;;;;;6165021;23;20093;-93
2020/12/27 01:46:49;;;;;;;25.15;3.75;;;10.30;99.90;;;;;;6166465;23;20302;-93
2020/12/27 01:49:34;;;;;;;21.15;3.75;;;10.30;99.90;;;;;;6164307;23;20092;-92
2020/12/27 01:52:22;;;;;;;29.35;5.20;;;10.30;99.90;;;;;;6165998;23;20541;-92
2020/12/27 01:55:08;;;;;;;30.63;4.15;;;10.40;99.90;;;;;;6164633;23;20019;-92
2020/12/27 01:57:54;;;;;;;;;;;10.40;99.90;;;;;;6165538;23;20024;-93
2020/12/27 02:00:44;;;;;;;32.80;4.70;;;10.40;99.90;;;;;;6165023;23;19920;-93
2020/12/27 02:03:26;;;;;;;33.92;4.53;;;10.40;99.90;;;;;;6187853;23;20028;-93
2020/12/27 02:06:20;;;;;;;32.22;5.07;;;10.40;99.90;;;;;;6165609;23;20041;-93
2020/12/27 02:09:12;;;;;;;37.63;5.13;;;10.40;99.90;;;;;;6165381;23;20020;-92
2020/12/27 02:12:10;;;;;;;37.75;4.75;;;10.40;99.90;;;;;;6164855;23;20021;-93
2020/12/27 02:15:03;;;;;;;23.67;5.10;;;10.40;99.90;;;;;;6165427;23;20096;-93
2020/12/27 02:17:56;;;;;;;29.60;4.85;;;10.40;99.90;;;;;;6165161;23;20025;-93
2020/12/27 02:20:55;;;;;;;34.72;6.10;;;10.40;99.90;;;;;;6166323;23;20449;-93
2020/12/27 02:23:43;;;;;;;28.50;4.95;;;10.40;99.90;;;;;;6164587;23;20539;-93
2020/12/27 02:26:30;;;;;;;28.98;4.53;;;10.40;99.90;;;;;;6187351;23;20454;-92
2020/12/27 02:29:14;;;;;;;29.73;4.38;;;10.40;99.90;;;;;;6187417;23;20036;-92
2020/12/27 02:32:01;;;;;;;28.00;5.55;;;10.40;99.90;;;;;;6165184;23;20057;-93
2020/12/27 02:34:50;;;;;;;41.58;4.90;;;10.40;99.90;;;;;;6165151;23;20021;-93
2020/12/27 02:37:43;;;;;;;36.28;6.22;;;10.40;99.90;;;;;;6165943;23;20048;-93
2020/12/27 02:40:41;;;;;;;37.88;5.63;;;10.40;99.90;;;;;;6166552;23;20353;-93
2020/12/27 02:43:37;;;;;;;33.00;5.32;;;10.50;99.90;;;;;;6166128;23;20267;-93
2020/12/27 02:46:29;;;;;;;44.45;6.00;;;10.50;99.90;;;;;;6165661;23;20024;-93
2020/12/27 02:49:25;;;;;;;40.33;5.82;;;10.50;99.90;;;;;;6188291;23;20073;-93
2020/12/27 02:52:13;;;;;;;35.22;5.80;;;10.50;99.90;;;;;;6164932;23;20021;-93
2020/12/27 02:55:01;;;;;;;36.05;5.55;;;10.50;99.90;;;;;;6164378;23;20017;-92
2020/12/27 02:57:47;;;;;;;39.95;5.47;;;10.50;99.90;;;;;;6164885;23;20446;-93
2020/12/27 03:00:35;;;;;;;40.65;5.85;;;10.50;99.90;;;;;;6164085;23;20025;-92
2020/12/27 03:03:23;;;;;;;41.50;6.22;;;10.50;99.90;;;;;;6188461;23;20104;-93
2020/12/27 03:06:05;;;;;;;42.53;5.93;;;10.50;99.90;;;;;;6164855;23;20017;-92
2020/12/27 03:08:58;;;;;;;39.22;6.13;;;10.50;99.90;;;;;;6166179;23;20441;-92
2020/12/27 03:11:48;;;;;;;51.33;7.50;;;10.40;99.90;;;;;;6165793;23;20021;-92
2020/12/27 03:14:39;;;;;;;53.83;7.60;;;10.40;99.90;;;;;;6187913;23;20013;-91
2020/12/27 03:17:28;;;;;;;47.45;7.07;;;10.30;99.90;;;;;;6164151;23;20479;-92
2020/12/27 03:20:16;;;;;;;43.58;7.45;;;10.30;99.90;;;;;;6163835;23;20044;-93
2020/12/27 03:22:59;;;;;;;43.67;5.90;;;10.30;99.90;;;;;;6164788;23;20440;-92
2020/12/27 03:25:42;;;;;;;47.22;6.45;;;10.30;99.90;;;;;;6164169;23;20017;-92
2020/12/27 03:28:22;;;;;;;40.05;6.13;;;10.30;99.90;;;;;;6164831;23;20017;-92
2020/12/27 03:31:02;;;;;;;43.55;6.45;;;10.20;99.90;;;;;;6162793;23;20068;-92
2020/12/27 03:33:41;;;;;;;36.53;6.45;;;10.20;99.90;;;;;;6162297;23;20017;-93
2020/12/27 03:36:27;;;;;;;41.92;7.22;;;10.20;99.90;;;;;;6186115;23;20032;-92
2020/12/27 03:39:11;;;;;;;42.03;6.85;;;10.20;99.90;;;;;;6164566;23;20020;-93
2020/12/27 03:42:01;;;;;;;51.53;7.70;;;10.20;99.90;;;;;;6164196;23;20089;-92
2020/12/27 03:44:48;;;;;;;45.33;7.57;;;10.20;99.90;;;;;;6163672;23;20078;-94
2020/12/27 03:47:31;;;;;;;36.67;6.43;;;10.20;99.90;;;;;;6187529;23;20021;-92
2020/12/27 03:50:20;;;;;;;41.20;6.15;;;10.30;99.90;;;;;;6163877;23;20017;-92
2020/12/27 03:53:12;;;;;;;46.63;6.72;;;10.30;99.90;;;;;;6164288;23;20013;-93
2020/12/27 03:55:58;;;;;;;50.08;7.43;;;10.30;99.90;;;;;;6186711;23;20021;-91
2020/12/27 03:58:46;;;;;;;40.00;6.78;;;10.30;99.90;;;;;;6163918;23;20088;-92
2020/12/27 04:01:33;;;;;;;41.88;5.68;;;10.30;99.90;;;;;;6164668;23;20021;-92
2020/12/27 04:04:20;;;;;;;57.17;8.07;;;10.30;99.90;;;;;;6187229;23;20080;-92
2020/12/27 04:07:13;;;;;;;51.45;7.43;;;10.40;99.90;;;;;;6165280;23;20035;-92
2020/12/27 04:10:02;;;;;;;51.20;8.05;;;10.40;99.90;;;;;;6164652;23;20021;-92
2020/12/27 04:12:57;;;;;;;47.35;6.68;;;10.40;99.90;;;;;;6164575;23;20017;-92
2020/12/27 04:15:39;;;;;;;48.95;6.63;;;10.40;99.90;;;;;;6163451;23;20051;-92
2020/12/27 04:18:31;;;;;;;40.05;6.50;;;10.40;99.90;;;;;;6187137;23;20021;-93
2020/12/27 04:21:22;;;;;;;48.53;6.05;;;10.40;99.90;;;;;;6164490;23;20014;-92
2020/12/27 04:24:09;;;;;;;61.35;7.38;;;10.40;99.90;;;;;;6163780;23;20046;-92
2020/12/27 04:26:56;;;;;;;54.75;7.63;;;10.40;99.90;;;;;;6163407;23;20071;-93
2020/12/27 04:29:37;;;;;;;47.90;8.02;;;10.40;99.90;;;;;;6162726;23;20335;-92
2020/12/27 04:32:22;;;;;;;53.97;7.50;;;10.40;99.90;;;;;;6164772;23;20027;-93
2020/12/27 04:35:07;;;;;;;39.58;6.53;;;10.40;99.90;;;;;;6164116;23;20021;-93
2020/12/27 04:38:00;;;;;;;59.85;7.68;;;10.30;99.90;;;;;;6165773;23;20511;-92
2020/12/27 04:40:51;;;;;;;54.00;8.13;;;10.40;99.90;;;;;;6165381;23;20040;-93
2020/12/27 04:43:33;;;;;;;56.40;8.85;;;10.30;99.90;;;;;;6164746;23;20024;-92
2020/12/27 04:46:25;;;;;;;55.50;8.32;;;10.40;99.90;;;;;;6165702;23;20467;-92
2020/12/27 04:49:14;;;;;;;64.88;9.63;;;10.30;99.90;;;;;;6164595;23;20480;-93
2020/12/27 04:52:04;;;;;;;55.90;7.68;;;10.30;99.90;;;;;;6187945;23;20503;-92
2020/12/27 04:54:56;;;;;;;52.03;7.18;;;10.30;99.90;;;;;;6163781;23;20025;-94
2020/12/27 04:57:59;;;;;;;52.72;8.55;;;10.30;99.90;;;;;;6167504;23;20424;-94
2020/12/27 05:01:00;;;;;;;62.72;9.02;;;10.30;99.90;;;;;;6164599;23;20540;-93
2020/12/27 05:03:55;;;;;;;57.15;8.90;;;10.30;99.90;;;;;;6164917;23;20025;-94
2020/12/27 05:06:42;;;;;;;57.60;9.15;;;10.20;99.90;;;;;;6164607;23;20044;-94
2020/12/27 05:09:33;;;;;;;53.75;8.90;;;10.30;99.90;;;;;;6166022;23;20017;-93
2020/12/27 05:12:25;;;;;;;57.05;8.98;;;10.30;99.90;;;;;;6188590;23;20104;-94
2020/12/27 05:15:09;;;;;;;47.58;7.97;;;10.20;99.90;;;;;;6165814;23;20016;-93
2020/12/27 05:17:56;;;;;;;61.53;9.55;;;10.30;99.90;;;;;;6165079;23;20025;-94
2020/12/27 05:20:58;;;;;;;62.35;9.00;;;10.30;99.90;;;;;;6167034;23;20021;-93
2020/12/27 05:23:47;;;;;;;57.67;9.15;;;10.30;99.90;;;;;;6166448;23;20017;-93
2020/12/27 05:26:38;;;;;;;66.60;9.70;;;10.20;99.90;;;;;;6166732;23;20032;-92
2020/12/27 05:29:44;;;;;;;62.60;8.07;;;10.20;99.90;;;;;;6165280;23;20025;-93
2020/12/27 05:32:51;;;;;;;64.40;9.13;;;10.20;99.90;;;;;;6169045;23;20015;-93
2020/12/27 05:35:46;;;;;;;57.75;7.90;;;10.20;99.90;;;;;;6165957;23;20037;-93
2020/12/27 05:38:49;;;;;;;65.78;8.63;;;10.10;99.90;;;;;;6166285;23;20502;-93
2020/12/27 05:41:40;;;;;;;59.92;7.40;;;10.20;99.90;;;;;;6166332;23;20024;-92
2020/12/27 05:44:32;;;;;;;50.42;8.52;;;10.20;99.90;;;;;;6165841;23;20017;-93
2020/12/27 05:47:20;;;;;;;58.25;8.40;;;10.20;99.90;;;;;;6165165;23;20075;-92
2020/12/27 05:50:16;;;;;;;58.17;8.05;;;10.20;99.90;;;;;;6167602;23;20017;-93
2020/12/27 05:53:11;;;;;;;57.40;8.38;;;10.20;99.90;;;;;;6165678;23;20024;-93
2020/12/27 05:56:11;;;;;;;56.00;8.20;;;10.20;99.90;;;;;;6167792;23;20037;-94
2020/12/27 05:59:10;;;;;;;69.43;10.50;;;10.20;99.90;;;;;;6165744;23;20504;-93
2020/12/27 06:02:21;;;;;;;60.25;7.95;;;10.20;99.90;;;;;;6138760;23;20120;-93
2020/12/27 06:05:17;;;;;;;62.00;9.68;;;10.20;99.90;;;;;;6136341;23;20068;-93
2020/12/27 06:08:35;;;;;;;55.08;8.48;;;10.20;99.90;;;;;;6141281;23;20048;-93
2020/12/27 06:11:45;;;;;;;57.83;9.02;;;10.20;99.90;;;;;;6135992;23;20232;-94
2020/12/27 06:14:55;;;;;;;71.18;10.60;;;10.20;99.90;;;;;;6137652;23;20072;-94
2020/12/27 06:18:10;;;;;;;70.40;9.80;;;10.20;99.90;;;;;;6138082;23;20473;-93
2020/12/27 06:21:10;;;;;;;;;;;10.10;99.90;;;;;;6138106;23;20017;-94
2020/12/27 06:24:41;;;;;;;60.53;8.63;;;10.10;99.90;;;;;;6137134;23;19917;-94
2020/12/27 06:27:47;;;;;;;67.93;9.70;;;10.10;99.90;;;;;;6134560;23;20092;-94
2020/12/27 06:30:55;;;;;;;64.55;9.57;;;10.10;99.90;;;;;;6137687;23;20017;-94
2020/12/27 06:34:00;;;;;;;67.15;9.38;;;10.00;99.90;;;;;;6137312;23;20025;-94
2020/12/27 06:37:07;;;;;;;62.90;9.27;;;10.00;99.90;;;;;;6138841;23;20088;-94
2020/12/27 06:40:01;;;;;;;55.63;8.38;;;10.00;99.90;;;;;;6137033;23;20022;-94
2020/12/27 06:43:00;;;;;;;65.28;8.55;;;10.00;99.90;;;;;;6137071;23;20437;-94
2020/12/27 06:46:22;;;;;;;55.50;8.35;;;10.10;99.90;;;;;;6137471;23;20014;-94
2020/12/27 06:49:40;;;;;;;78.18;11.27;;;10.10;99.90;;;;;;6138263;23;20022;-94
2020/12/27 06:52:43;;;;;;;64.68;9.95;;;10.10;99.90;;;;;;6137680;23;20020;-93
2020/12/27 06:56:00;;;;;;;57.65;8.65;;;10.10;99.90;;;;;;6137193;23;20049;-93
2020/12/27 06:59:26;;;;;;;59.97;7.47;;;10.20;99.90;;;;;;6139888;23;20024;-94
2020/12/27 07:02:40;;;;;;;59.20;9.02;;;10.20;99.90;;;;;;6168659;23;20448;-94
2020/12/27 07:05:56;;;;;;;54.30;7.70;;;10.20;99.90;;;;;;6164364;23;20487;-94
2020/12/27 07:09:07;;;;;;;57.17;7.78;;;10.20;99.90;;;;;;6168938;23;20017;-94
2020/12/27 07:12:15;;;;;;;53.28;7.88;;;10.20;99.90;;;;;;6167575;23;20074;-94
2020/12/27 07:15:18;;;;;;;57.55;7.50;;;10.20;99.90;;;;;;6167613;23;20017;-93
2020/12/27 07:18:13;;;;;;;61.45;7.90;;;10.20;99.90;;;;;;6165301;23;20087;-95
2020/12/27 07:21:17;;;;;;;42.22;6.28;;;10.20;99.90;;;;;;6164220;23;20039;-95
2020/12/27 07:24:27;;;;;;;47.05;7.18;;;10.20;99.90;;;;;;6167929;23;20052;-94
2020/12/27 07:27:16;;;;;;;44.78;6.30;;;10.20;99.90;;;;;;6165792;23;20020;-94
2020/12/27 07:30:05;;;;;;;47.80;7.43;;;10.20;99.90;;;;;;6164070;23;20025;-93
2020/12/27 07:32:55;;;;;;;47.17;6.00;;;10.20;99.90;;;;;;6164755;23;20330;-93
2020/12/27 07:35:40;;;;;;;46.50;5.97;;;10.20;99.90;;;;;;6165983;23;20096;-93
2020/12/27 07:38:20;;;;;;;49.28;7.15;;;10.20;99.90;;;;;;6163489;23;20545;-94
2020/12/27 07:41:32;;;;;;;48.85;7.18;;;10.20;99.90;;;;;;6167514;23;20385;-93
2020/12/27 07:44:35;;;;;;;49.22;6.78;;;10.30;99.90;;;;;;6165827;23;20504;-94
2020/12/27 07:47:26;;;;;;;49.35;7.60;;;10.30;99.90;;;;;;6164722;23;20017;-94
2020/12/27 07:50:16;;;;;;;52.75;7.80;;;10.40;99.90;;;;;;6164855;23;20406;-94
2020/12/27 07:53:16;;;;;;;43.75;6.88;;;10.40;99.90;;;;;;6166153;23;20021;-93
2020/12/27 07:56:11;;;;;;;56.42;8.10;;;10.40;99.90;;;;;;6165420;23;20017;-94
2020/12/27 07:59:12;;;;;;;46.67;7.40;;;10.40;99.90;;;;;;6166065;23;20071;-94
2020/12/27 08:02:23;;;;;;;46.90;6.75;;;10.40;99.90;;;;;;6164176;23;20136;-94
2020/12/27 08:05:28;;;;;;;41.05;6.25;;;10.40;99.90;;;;;;6187421;23;20036;-94
2020/12/27 08:08:44;;;;;;;55.03;8.43;;;10.40;99.90;;;;;;6165296;23;20021;-95
2020/12/27 08:11:36;;;;;;;48.67;5.82;;;10.40;99.90;;;;;;6166852;23;20036;-92
2020/12/27 08:14:19;;;;;;;30.70;3.50;;;10.40;99.90;;;;;;6187957;23;20321;-93
2020/12/27 08:17:04;;;;;;;9.82;1.50;;;10.40;99.90;;;;;;6168157;23;20021;-93
2020/12/27 08:20:06;;;;;;;9.75;1.80;;;10.30;99.90;;;;;;6165023;23;20020;-94
2020/12/27 08:23:27;;;;;;;31.27;5.22;;;10.30;99.90;;;;;;6168128;23;20036;-95
2020/12/27 08:30:01;;;;;;;57.30;6.78;;;10.20;99.90;;;;;;6186493;23;20024;-95
2020/12/27 08:33:36;;;;;;;18.40;2.35;;;10.20;99.90;;;;;;6167654;23;20503;-94
2020/12/27 08:37:14;;;;;;;19.08;2.45;;;9.90;99.90;;;;;;6186871;23;20294;-95
2020/12/27 08:40:06;;;;;;;24.10;2.83;;;9.60;99.90;;;;;;6167822;23;20028;-94
2020/12/27 08:43:14;;;;;;;18.55;4.13;;;9.30;99.90;;;;;;6174331;23;20397;-94
2020/12/27 08:46:21;;;;;;;21.33;3.20;;;9.20;99.90;;;;;;6170003;23;20020;-94
2020/12/27 08:49:29;;;;;;;26.35;3.78;;;9.10;99.90;;;;;;6172182;23;20021;-93
2020/12/27 08:52:33;;;;;;;27.60;3.28;;;9.10;99.90;;;;;;6194558;23;20444;-94
2020/12/27 08:55:39;;;;;;;25.48;3.63;;;9.10;99.90;;;;;;6172909;23;20021;-94
2020/12/27 08:58:40;;;;;;;28.60;3.53;;;9.00;99.90;;;;;;6172686;23;20068;-94
2020/12/27 09:01:50;;;;;;;32.15;4.65;;;9.00;99.90;;;;;;6174881;23;20021;-94
2020/12/27 09:04:40;;;;;;;29.90;3.95;;;9.00;99.90;;;;;;6173696;23;20020;-93
2020/12/27 09:07:38;;;;;;;21.95;3.38;;;9.00;99.90;;;;;;6170297;23;20017;-93
2020/12/27 09:10:23;;;;;;;;;;;9.00;99.90;;;;;;6197996;23;20017;-93
2020/12/27 09:13:21;;;;;;;28.10;4.15;;;9.10;99.90;;;;;;6174217;23;19940;-93
2020/12/27 09:16:13;;;;;;;23.50;3.88;;;9.00;99.90;;;;;;6175088;23;20088;-94
2020/12/27 09:19:30;;;;;;;37.00;4.73;;;9.10;99.90;;;;;;6173239;23;20080;-93
2020/12/27 09:22:19;;;;;;;33.83;4.45;;;9.00;99.90;;;;;;6173378;23;20096;-93
2020/12/27 09:25:17;;;;;;;32.35;4.32;;;9.00;99.90;;;;;;6171857;23;20017;-93
2020/12/27 09:27:56;;;;;;;29.20;4.50;;;9.10;99.90;;;;;;6169203;23;20096;-93
2020/12/27 09:30:58;;;;;;;24.50;3.75;;;9.10;99.90;;;;;;6169588;23;20345;-92
2020/12/27 09:33:45;;;;;;;32.47;4.55;;;9.00;99.90;;;;;;6171459;23;20079;-94
2020/12/27 09:36:40;;;;;;;29.30;3.47;;;9.10;99.90;;;;;;6172792;23;20032;-93
2020/12/27 09:39:40;;;;;;;18.10;2.28;;;9.00;99.90;;;;;;6172521;23;20017;-92
2020/12/27 09:42:32;;;;;;;12.88;2.25;;;9.00;99.90;;;;;;6194748;23;20052;-93
2020/12/27 09:45:25;;;;;;;17.75;2.78;;;8.90;99.90;;;;;;6165560;23;20440;-93
2020/12/27 09:48:23;;;;;;;13.60;2.13;;;8.90;99.90;;;;;;6194222;23;20096;-93
2020/12/27 09:51:20;;;;;;;13.55;2.42;;;8.80;99.90;;;;;;6167955;23;20437;-93
2020/12/27 09:54:12;;;;;;;16.23;2.10;;;8.80;99.90;;;;;;6168213;23;20017;-93
2020/12/27 09:57:18;;;;;;;13.43;2.53;;;8.80;99.90;;;;;;6168980;23;20076;-91
2020/12/27 10:00:06;;;;;;;15.20;2.33;;;8.80;99.90;;;;;;6190295;23;20025;-93
2020/12/27 10:03:11;;;;;;;15.95;2.20;;;8.80;99.90;;;;;;6171822;23;20021;-92
2020/12/27 10:06:12;;;;;;;15.30;3.00;;;8.80;99.90;;;;;;6168989;23;20100;-93
2020/12/27 10:08:58;;;;;;;;;;;8.70;99.90;;;;;;6167764;23;20092;-93
2020/12/27 10:11:50;;;;;;;16.35;2.78;;;8.70;99.90;;;;;;6166088;23;19943;-93
2020/12/27 10:14:38;;;;;;;27.90;3.72;;;8.70;99.90;;;;;;6165325;23;20425;-93
2020/12/27 10:17:31;;;;;;;34.13;5.18;;;8.70;99.90;;;;;;6168181;23;20393;-94
2020/12/27 10:20:36;;;;;;;28.65;4.07;;;8.70;99.90;;;;;;6167604;23;20021;-94
2020/12/27 10:23:25;;;;;;;37.33;5.53;;;8.70;99.90;;;;;;6167978;23;20077;-93
2020/12/27 10:26:14;;;;;;;43.47;6.33;;;8.80;99.90;;;;;;6168738;23;20012;-93
2020/12/27 10:29:04;;;;;;;29.63;4.60;;;8.80;99.90;;;;;;6167254;23;20267;-93
2020/12/27 10:31:58;;;;;;;35.00;4.80;;;8.90;99.90;;;;;;6167970;23;20013;-93
2020/12/27 10:34:50;;;;;;;38.38;6.20;;;8.90;99.90;;;;;;6188851;23;20021;-93
2020/12/27 10:37:39;;;;;;;31.27;4.18;;;9.00;99.90;;;;;;6166007;23;20013;-92
2020/12/27 10:40:35;;;;;;;27.58;4.35;;;9.00;99.90;;;;;;6166948;23;20048;-93
2020/12/27 10:43:26;;;;;;;38.10;8.50;;;9.00;99.90;;;;;;6167569;23;20013;-93
2020/12/27 10:46:12;;;;;;;31.55;5.07;;;9.00;99.90;;;;;;6166083;23;20021;-93
2020/12/27 10:49:04;;;;;;;25.90;4.90;;;9.00;99.90;;;;;;6165935;23;20017;-93
2020/12/27 10:51:53;;;;;;;23.98;4.13;;;9.10;99.90;;;;;;6165899;23;20049;-93
2020/12/27 10:54:46;;;;;;;37.55;6.03;;;9.10;99.90;;;;;;6167357;23;20013;-93
2020/12/27 10:57:32;;;;;;;37.40;6.43;;;9.20;99.90;;;;;;6165130;23;20013;-93
2020/12/27 11:00:23;;;;;;;30.30;5.57;;;9.20;99.90;;;;;;6164375;23;20029;-93
2020/12/27 11:03:05;;;;;;;;;;;9.20;99.90;;;;;;6166130;23;20441;-93
2020/12/27 11:05:52;;;;;;;20.02;3.35;;;9.30;99.90;;;;;;6165247;23;20276;-94
2020/12/27 11:08:33;;;;;;;20.52;3.22;;;9.30;99.90;;;;;;6165290;23;20021;-93
2020/12/27 11:11:16;;;;;;;13.35;2.83;;;9.30;99.90;;;;;;6165624;23;20017;-93
2020/12/27 11:14:02;;;;;;;14.20;2.17;;;9.30;99.90;;;;;;6165945;23;20021;-92
2020/12/27 11:16:56;;;;;;;20.00;2.15;;;9.10;99.90;;;;;;6166956;23;20021;-94
2020/12/27 11:19:48;;;;;;;15.05;2.10;;;8.80;99.90;;;;;;6165221;23;20361;-94
2020/12/27 11:22:38;;;;;;;16.20;1.95;;;8.70;99.90;;;;;;6165009;23;20017;-93
2020/12/27 11:25:18;;;;;;;18.05;2.10;;;8.40;99.90;;;;;;6164641;23;20028;-93
2020/12/27 11:28:04;;;;;;;11.95;1.60;;;8.40;99.90;;;;;;6165824;23;20013;-92
2020/12/27 11:31:00;;;;;;;11.40;2.17;;;8.20;99.90;;;;;;6188235;23;20040;-93
2020/12/27 11:34:06;;;;;;;13.80;2.03;;;8.10;99.90;;;;;;6168959;23;20063;-92
2020/12/27 11:37:08;;;;;;;9.73;1.97;;;8.00;99.90;;;;;;6166541;23;20047;-92
2020/12/27 11:40:05;;;;;;;8.55;1.33;;;7.90;99.90;;;;;;6169866;23;20013;-92
2020/12/27 11:42:57;;;;;;;10.25;1.52;;;7.90;99.90;;;;;;6168343;23;20127;-92
2020/12/27 11:45:50;;;;;;;6.25;1.70;;;7.90;99.90;;;;;;6190366;23;20017;-91
2020/12/27 11:48:30;;;;;;;8.73;1.13;;;7.90;99.90;;;;;;6167258;23;20040;-90
2020/12/27 11:51:20;;;;;;;6.38;1.20;;;7.90;99.90;;;;;;6168881;23;20044;-93
2020/12/27 11:54:05;;;;;;;9.55;1.30;;;7.90;99.90;;;;;;6166041;23;20072;-93
2020/12/27 11:56:56;;;;;;;8.45;1.70;;;7.90;99.90;;;;;;6188990;23;20064;-91
2020/12/27 11:59:45;;;;;;;14.75;1.85;;;7.90;99.90;;;;;;6167223;23;20059;-93
2020/12/27 12:02:47;;;;;;;8.77;1.73;;;7.90;99.90;;;;;;6138772;23;20453;-93
2020/12/27 12:05:38;;;;;;;9.13;1.65;;;7.90;99.90;;;;;;6135855;23;20068;-92
2020/12/27 12:08:25;;;;;;;11.57;1.60;;;8.00;99.90;;;;;;6136911;23;20080;-92
2020/12/27 12:11:21;;;;;;;17.17;2.28;;;8.00;99.90;;;;;;6137897;23;20065;-92
2020/12/27 12:14:11;;;;;;;15.73;2.03;;;8.00;99.90;;;;;;6137118;23;20032;-92
2020/12/27 12:17:02;;;;;;;15.65;2.13;;;8.10;99.90;;;;;;6137918;23;20021;-91
2020/12/27 12:19:41;;;;;;;14.93;1.92;;;8.10;99.90;;;;;;6135496;23;20014;-92
2020/12/27 12:22:41;;;;;;;12.43;2.20;;;8.20;99.90;;;;;;6137373;23;20021;-92
2020/12/27 12:25:36;;;;;;;14.23;2.25;;;8.40;99.90;;;;;;6135656;23;20017;-90
2020/12/27 12:28:26;;;;;;;14.45;2.10;;;8.50;99.90;;;;;;6135828;23;20041;-92
2020/12/27 12:31:28;;;;;;;11.25;2.05;;;8.50;99.90;;;;;;6137218;23;20052;-89
2020/12/27 12:34:20;;;;;;;10.30;1.70;;;8.50;99.90;;;;;;6136286;23;20021;-91
2020/12/27 12:37:11;;;;;;;15.32;2.53;;;8.50;99.90;;;;;;6138373;23;20022;-92
2020/12/27 12:40:22;;;;;;;19.75;2.15;;;8.60;99.90;;;;;;6138426;23;20018;-93
2020/12/27 12:43:16;;;;;;;18.55;3.63;;;8.70;99.90;;;;;;6140296;23;20021;-93
2020/12/27 12:46:18;;;;;;;11.77;2.50;;;8.90;99.90;;;;;;6160288;23;20073;-93
2020/12/27 12:49:05;;;;;;;18.25;2.60;;;8.90;99.90;;;;;;6157348;23;20119;-93
2020/12/27 12:51:50;;;;;;;16.92;3.00;;;9.00;99.90;;;;;;6136270;23;20021;-93
2020/12/27 12:54:29;;;;;;;18.27;3.20;;;9.00;99.90;;;;;;6135025;23;20100;-91
2020/12/27 12:57:09;;;;;;;17.45;3.10;;;9.00;99.90;;;;;;6133507;23;20029;-92
2020/12/27 12:59:59;;;;;;;13.07;2.75;;;8.90;99.90;;;;;;6136255;23;20017;-93
2020/12/27 13:02:42;;;;;;;16.73;3.03;;;9.00;99.90;;;;;;6171093;23;20334;-93
2020/12/27 13:05:25;;;;;;;22.95;3.00;;;9.00;99.90;;;;;;6166034;23;20017;-92
2020/12/27 13:08:12;;;;;;;25.08;4.07;;;9.00;99.90;;;;;;6166703;23;20380;-92
2020/12/27 13:10:59;;;;;;;18.63;3.33;;;9.00;99.90;;;;;;6165953;23;20028;-92
2020/12/27 13:13:46;;;;;;;15.68;3.30;;;9.00;99.90;;;;;;6165747;23;20021;-92
2020/12/27 13:16:30;;;;;;;15.93;3.10;;;9.00;99.90;;;;;;6165410;23;20091;-92
2020/12/27 13:19:18;;;;;;;13.88;2.55;;;9.00;99.90;;;;;;6163927;23;20024;-92
2020/12/27 13:22:16;;;;;;;15.68;2.60;;;9.00;99.90;;;;;;6168066;23;20017;-94
2020/12/27 13:25:02;;;;;;;15.27;2.83;;;9.00;99.90;;;;;;6163379;23;20017;-93
2020/12/27 13:27:58;;;;;;;14.73;3.25;;;9.10;99.90;;;;;;6167481;23;20025;-92
2020/12/27 13:30:47;;;;;;;17.27;3.63;;;9.10;99.90;;;;;;6164987;23;20013;-93
2020/12/27 13:33:46;;;;;;;19.08;2.92;;;9.10;99.90;;;;;;6167722;23;20102;-92
2020/12/27 13:36:28;;;;;;;20.73;3.40;;;9.30;99.90;;;;;;6164848;23;20017;-92
2020/12/27 13:39:16;;;;;;;14.55;2.85;;;9.30;99.90;;;;;;6167542;23;20048;-93
2020/12/27 13:42:09;;;;;;;20.42;3.40;;;9.40;99.90;;;;;;6166192;23;20456;-93
2020/12/27 13:44:50;;;;;;;14.38;2.95;;;9.40;99.90;;;;;;6164810;23;20071;-93
2020/12/27 13:47:43;;;;;;;14.27;3.10;;;9.40;99.90;;;;;;6166547;23;20488;-94
2020/12/27 13:50:29;;;;;;;14.60;2.90;;;9.30;99.90;;;;;;6166522;23;20079;-93
2020/12/27 13:53:12;;;;;;;20.92;3.42;;;9.30;99.90;;;;;;6165507;23;20036;-93
2020/12/27 13:56:02;;;;;;;16.77;3.20;;;9.20;99.90;;;;;;6166180;23;20093;-93
2020/12/27 13:58:46;;;;;;;19.05;2.80;;;9.10;99.90;;;;;;6165905;23;20017;-93
2020/12/27 14:01:42;;;;;;;18.40;2.88;;;9.20;99.90;;;;;;6167016;23;20021;-93
2020/12/27 14:04:33;;;;;;;14.48;3.42;;;9.20;99.90;;;;;;6165872;23;20449;-93
2020/12/27 14:07:14;;;;;;;;;;;9.30;99.90;;;;;;6166645;23;20017;-91
2020/12/27 14:10:02;;;;;;;21.60;3.33;;;9.40;99.90;;;;;;6165936;23;19916;-93
2020/12/27 14:13:00;;;;;;;23.48;3.50;;;9.40;99.90;;;;;;6168547;23;20037;-93
2020/12/27 14:16:02;;;;;;;13.48;3.25;;;9.40;99.90;;;;;;6175307;23;20021;-93
2020/12/27 14:18:47;;;;;;;21.08;5.10;;;9.50;99.90;;;;;;6168365;23;20120;-93
2020/12/27 14:21:30;;;;;;;19.80;3.25;;;9.50;99.90;;;;;;6168891;23;20044;-93
2020/12/27 14:24:39;;;;;;;19.60;3.00;;;9.50;99.90;;;;;;6170671;23;20025;-93
2020/12/27 14:27:43;;;;;;;15.85;3.40;;;9.50;99.90;;;;;;6196002;23;20024;-93
2020/12/27 14:30:29;;;;;;;18.67;3.10;;;9.40;99.90;;;;;;6166059;23;20021;-93
2020/12/27 14:33:12;;;;;;;20.77;4.05;;;9.30;99.90;;;;;;6166586;23;20042;-93
2020/12/27 14:36:20;;;;;;;16.45;3.25;;;9.00;99.90;;;;;;6169910;23;20021;-92
2020/12/27 14:39:02;;;;;;;13.23;2.33;;;8.70;99.90;;;;;;6164864;23;20017;-92
2020/12/27 14:41:43;;;;;;;13.10;2.28;;;8.50;99.90;;;;;;6164723;23;20037;-93
2020/12/27 14:44:28;;;;;;;7.97;1.92;;;8.30;99.90;;;;;;6164466;23;20318;-92
2020/12/27 14:47:10;;;;;;;7.45;1.27;;;8.10;99.90;;;;;;6167545;23;20134;-92
2020/12/27 14:49:51;;;;;;;8.85;1.35;;;8.00;99.90;;;;;;6164435;23;20351;-92
2020/12/27 14:52:30;;;;;;;6.13;1.20;;;8.00;99.90;;;;;;6164387;23;20017;-92
2020/12/27 14:55:18;;;;;;;8.40;1.60;;;7.90;99.90;;;;;;6165174;23;20013;-93
2020/12/27 14:58:06;;;;;;;12.07;1.95;;;7.80;99.90;;;;;;6165141;23;20545;-92